Time;durP1;ratioP1;P1;durP2;ratioP2;P2;SDS_P1;SDS_P2;PMS_P1;PMS_P2;Temp;Humidity;BMP_temperature;BMP_pressure;BME280_temperature;BME280_humidity;BME280_pressure;Samples;Min_cycle;Max_cycle;Signal;HPM_P1;HPM_P2
2022/01/12 00:00:24;;;;;;;61.10;32.97;;;3.50;92.70;;;;;;5102080;28;20016;-51
2022/01/12 00:02:51;;;;;;;68.13;35.60;;;3.50;92.70;;;;;;5095466;28;20040;-46
2022/01/12 00:05:19;;;;;;;61.92;33.03;;;3.50;92.70;;;;;;5078863;28;20046;-46
2022/01/12 00:07:50;;;;;;;71.15;37.60;;;3.50;92.70;;;;;;5104923;28;20024;-49
2022/01/12 00:10:18;;;;;;;63.88;33.30;;;3.50;92.70;;;;;;5108703;28;20024;-46
2022/01/12 00:12:45;;;;;;;71.47;35.90;;;3.50;92.70;;;;;;5079450;28;20032;-46
2022/01/12 00:15:14;;;;;;;67.20;34.55;;;3.50;92.70;;;;;;5093839;28;20051;-47
2022/01/12 00:17:41;;;;;;;66.33;34.93;;;3.60;92.80;;;;;;5105351;28;20058;-48
2022/01/12 00:20:08;;;;;;;66.78;35.72;;;3.50;92.70;;;;;;5112911;28;20035;-50
2022/01/12 00:22:37;;;;;;;70.20;36.58;;;3.50;92.70;;;;;;5093855;28;20039;-50
2022/01/12 00:25:23;;;;;;;64.65;35.10;;;3.50;92.80;;;;;;5082049;28;20020;-50
2022/01/12 00:33:21;;;;;;;79.88;37.55;;;3.50;92.90;;;;;;5094159;28;20047;-49
2022/01/12 00:35:52;;;;;;;65.85;33.47;;;3.50;92.90;;;;;;5096434;28;20044;-46
2022/01/12 00:38:20;;;;;;;70.25;34.05;;;3.50;92.90;;;;;;5093623;28;20035;-49
2022/01/12 00:40:54;;;;;;;74.28;38.10;;;3.60;92.90;;;;;;5087660;28;20028;-48
2022/01/12 00:43:23;;;;;;;69.88;35.28;;;3.60;92.90;;;;;;5114121;28;20032;-46
2022/01/12 00:45:49;;;;;;;70.85;34.95;;;3.60;92.90;;;;;;5111217;28;20028;-49
2022/01/12 00:48:17;;;;;;;65.28;34.40;;;3.50;92.90;;;;;;5113911;28;20036;-49
2022/01/12 00:50:48;;;;;;;79.25;35.17;;;3.60;92.90;;;;;;5113727;28;20034;-48
2022/01/12 00:53:16;;;;;;;77.07;37.35;;;3.50;92.90;;;;;;5075423;28;20032;-50
2022/01/12 00:55:45;;;;;;;73.18;37.90;;;3.60;92.90;;;;;;5094361;28;20024;-48
2022/01/12 00:58:14;;;;;;;84.40;37.67;;;3.60;92.90;;;;;;5075675;28;20118;-48
2022/01/12 01:00:41;;;;;;;78.67;37.07;;;3.60;92.90;;;;;;5098881;28;20089;-51
2022/01/12 01:03:09;;;;;;;78.47;39.65;;;3.60;92.90;;;;;;5082482;28;20020;-51
2022/01/12 01:05:36;;;;;;;76.68;37.10;;;3.60;92.90;;;;;;5099392;28;20042;-50
2022/01/12 01:08:03;;;;;;;84.78;39.45;;;3.60;93.00;;;;;;5116509;28;20030;-50
2022/01/12 01:10:46;;;;;;;70.95;37.22;;;3.50;92.90;;;;;;5104272;28;20027;-48
2022/01/12 01:13:20;;;;;;;81.10;37.30;;;3.60;93.00;;;;;;5106152;28;20028;-49
2022/01/12 01:26:36;;;;;;;73.85;37.60;;;3.60;93.00;;;;;;5116702;28;20073;-51
2022/01/12 01:29:03;;;;;;;83.07;40.00;;;3.70;93.00;;;;;;5104103;28;20028;-45
2022/01/12 01:31:34;;;;;;;87.53;40.17;;;3.70;93.00;;;;;;5097234;28;20052;-49
2022/01/12 01:34:07;;;;;;;89.97;39.75;;;3.70;93.00;;;;;;5098217;28;20081;-47
2022/01/12 01:36:37;;;;;;;85.50;39.30;;;3.70;93.00;;;;;;5082001;28;20051;-48
2022/01/12 01:39:04;;;;;;;;;;;3.70;93.00;;;;;;5109817;28;20080;-48
2022/01/12 01:41:31;;;;;;;72.90;36.30;;;3.70;93.00;;;;;;5112585;28;19990;-47
2022/01/12 01:55:04;;;;;;;84.88;39.55;;;3.60;93.00;;;;;;5100910;28;20063;-50
2022/01/12 01:57:32;;;;;;;91.10;40.47;;;3.70;93.10;;;;;;5116708;28;20023;-49
2022/01/12 02:00:04;;;;;;;89.47;41.33;;;3.70;93.10;;;;;;5111367;28;20457;-50
2022/01/12 02:02:31;;;;;;;79.78;38.20;;;3.70;93.10;;;;;;5117367;28;20473;-48
2022/01/12 02:04:58;;;;;;;86.93;38.80;;;3.70;93.10;;;;;;5111297;28;20035;-48
2022/01/12 02:07:25;;;;;;;82.00;40.15;;;3.70;93.10;;;;;;5096818;28;20028;-47
2022/01/12 02:09:52;;;;;;;88.65;40.42;;;3.80;93.10;;;;;;5079284;28;20379;-51
2022/01/12 02:12:25;;;;;;;84.68;40.95;;;3.80;93.10;;;;;;5078144;28;20028;-46
2022/01/12 02:14:52;;;;;;;93.22;40.65;;;3.80;93.10;;;;;;5096977;28;20046;-51
2022/01/12 02:17:24;;;;;;;89.53;41.35;;;3.90;93.10;;;;;;5107738;28;20138;-47
2022/01/12 02:20:11;;;;;;;90.28;41.05;;;3.80;93.10;;;;;;5102180;28;20394;-49
2022/01/12 02:36:32;;;;;;;82.18;39.38;;;3.90;93.10;;;;;;5113629;28;20157;-45
2022/01/12 02:41:45;;;;;;;86.35;39.22;;;3.90;93.00;;;;;;5115937;28;20471;-45
2022/01/12 02:55:02;;;;;;;96.43;42.53;;;3.90;93.20;;;;;;5110660;28;20016;-43
2022/01/12 02:57:29;;;;;;;77.32;37.80;;;3.90;93.20;;;;;;5094451;28;20122;-45
2022/01/12 03:02:34;;;;;;;112.28;48.58;;;3.90;93.10;;;;;;5095473;28;20024;-46
2022/01/12 03:07:47;;;;;;;90.13;42.28;;;3.90;93.10;;;;;;5095638;28;20046;-51
2022/01/12 03:10:14;;;;;;;76.63;36.60;;;3.90;93.10;;;;;;5098319;28;20067;-48
2022/01/12 03:12:47;;;;;;;77.45;34.30;;;3.80;93.10;;;;;;5100737;28;20118;-46
2022/01/12 03:15:14;;;;;;;77.65;35.50;;;3.90;93.10;;;;;;5115567;28;20027;-44
2022/01/12 03:17:41;;;;;;;86.90;39.53;;;3.80;93.10;;;;;;5092500;28;20429;-45
2022/01/12 03:20:08;;;;;;;88.50;37.13;;;3.80;93.10;;;;;;5098269;28;20092;-46
2022/01/12 03:22:35;;;;;;;82.60;38.38;;;3.80;93.20;;;;;;5101909;28;20093;-50
2022/01/12 03:25:03;;;;;;;87.07;38.22;;;3.80;93.10;;;;;;5109128;28;20101;-45
2022/01/12 03:27:30;;;;;;;78.97;38.10;;;3.80;93.10;;;;;;5115329;28;20107;-44
2022/01/12 03:29:57;;;;;;;89.43;37.17;;;3.80;93.00;;;;;;5104712;28;20469;-50
2022/01/12 03:32:41;;;;;;;84.57;38.72;;;3.80;93.00;;;;;;5077032;28;20032;-47
2022/01/12 03:35:22;;;;;;;86.82;38.28;;;3.70;93.00;;;;;;5083788;28;20020;-46
2022/01/12 03:38:19;;;;;;;73.72;34.35;;;3.70;93.00;;;;;;5114807;28;20120;-47
2022/01/12 03:40:41;;;;;;;80.20;35.20;;;3.70;93.00;;;;;;5108597;28;20046;-50
2022/01/12 03:43:08;;;;;;;66.35;33.08;;;3.70;93.00;;;;;;5114484;28;20035;-48
2022/01/12 03:45:35;;;;;;;103.65;37.38;;;3.70;93.00;;;;;;5096787;28;20032;-46
2022/01/12 03:48:03;;;;;;;68.35;34.78;;;3.60;92.90;;;;;;5103572;28;20514;-49
2022/01/12 03:50:30;;;;;;;105.38;35.63;;;3.70;93.00;;;;;;5094592;28;20077;-45
2022/01/12 03:52:57;;;;;;;75.68;33.25;;;3.60;93.00;;;;;;5104106;28;20448;-46
2022/01/12 03:55:24;;;;;;;138.20;36.67;;;3.70;93.00;;;;;;5096082;28;20057;-45
2022/01/12 03:57:50;;;;;;;83.20;35.03;;;3.70;93.00;;;;;;5096480;28;20031;-47
2022/01/12 04:00:16;;;;;;;66.13;34.33;;;3.70;93.10;;;;;;5088276;28;20040;-48
2022/01/12 04:02:43;;;;;;;72.55;35.40;;;3.70;93.00;;;;;;5094451;28;20039;-50
2022/01/12 04:05:25;;;;;;;109.97;35.63;;;3.70;93.10;;;;;;5094600;28;20036;-49
2022/01/12 04:10:37;;;;;;;86.47;35.05;;;3.70;93.10;;;;;;5109530;28;20035;-51
2022/01/12 04:13:04;;;;;;;79.25;34.45;;;3.70;93.10;;;;;;5114369;28;20394;-45
2022/01/12 04:15:31;;;;;;;75.85;34.38;;;3.70;93.10;;;;;;5104347;28;20038;-45
2022/01/12 04:17:57;;;;;;;75.40;33.17;;;3.70;93.00;;;;;;5105387;28;20032;-49
2022/01/12 04:20:23;;;;;;;69.97;34.13;;;3.70;93.10;;;;;;5114439;28;20043;-45
2022/01/12 04:25:36;;;;;;;70.88;33.30;;;3.70;93.10;;;;;;5104801;28;20520;-48
2022/01/12 04:28:01;;;;;;;56.67;31.92;;;3.70;93.10;;;;;;5087165;28;20067;-46
2022/01/12 04:30:28;;;;;;;68.30;33.42;;;3.70;93.10;;;;;;5107366;28;20055;-45
2022/01/12 04:32:54;;;;;;;60.38;32.83;;;3.70;93.10;;;;;;5106354;28;20408;-45
2022/01/12 04:35:24;;;;;;;70.60;33.92;;;3.70;93.10;;;;;;5095675;28;20107;-44
2022/01/12 04:37:52;;;;;;;63.40;32.95;;;3.70;93.10;;;;;;5114312;28;20330;-44
2022/01/12 04:40:19;;;;;;;71.57;34.75;;;3.80;93.10;;;;;;5114346;28;20027;-44
2022/01/12 04:42:46;;;;;;;68.32;33.70;;;3.80;93.10;;;;;;5113261;28;20034;-45
2022/01/12 04:45:58;;;;;;;77.65;35.78;;;3.80;93.20;;;;;;5107236;28;20039;-43
2022/01/12 04:50:44;;;;;;;70.03;33.35;;;3.90;93.20;;;;;;5073690;28;20111;-44
2022/01/12 04:53:13;;;;;;;73.22;32.33;;;3.90;93.20;;;;;;5074040;28;20036;-44
2022/01/12 04:55:43;;;;;;;70.25;34.42;;;3.90;93.20;;;;;;5068646;28;20046;-45
2022/01/12 04:58:10;;;;;;;75.70;35.92;;;3.90;93.20;;;;;;5057318;28;20396;-45
2022/01/12 05:00:38;;;;;;;72.93;35.58;;;3.90;93.20;;;;;;5075927;28;20070;-43
2022/01/12 05:08:49;;;;;;;66.50;32.70;;;3.90;93.20;;;;;;5090709;28;20043;-45
2022/01/12 05:14:02;;;;;;;81.38;33.95;;;4.00;93.20;;;;;;5093921;28;20125;-46
2022/01/12 05:16:29;;;;;;;80.32;33.70;;;4.00;93.20;;;;;;5092522;28;20028;-47
2022/01/12 05:18:57;;;;;;;62.97;32.22;;;4.00;93.20;;;;;;5079160;28;20028;-45
2022/01/12 05:21:26;;;;;;;60.53;29.98;;;4.00;93.20;;;;;;5085495;28;20032;-44
2022/01/12 05:23:53;;;;;;;73.35;32.63;;;4.00;93.20;;;;;;5038935;28;20696;-44
2022/01/12 05:26:20;;;;;;;64.72;30.75;;;4.00;93.10;;;;;;5074291;28;20048;-45
2022/01/12 05:28:47;;;;;;;74.00;33.28;;;4.00;93.20;;;;;;5068172;28;20494;-44
2022/01/12 05:31:18;;;;;;;81.95;34.28;;;4.00;93.10;;;;;;5076052;28;20433;-45
2022/01/12 05:33:48;;;;;;;62.03;31.17;;;4.00;93.10;;;;;;5080146;28;20048;-43
2022/01/12 05:36:17;;;;;;;57.85;29.10;;;3.90;93.10;;;;;;5074262;28;20053;-43
2022/01/12 05:38:45;;;;;;;70.20;31.80;;;4.00;93.10;;;;;;5073153;28;20099;-43
2022/01/12 05:41:12;;;;;;;54.47;30.75;;;4.00;93.10;;;;;;5077514;28;20658;-43
2022/01/12 05:43:41;;;;;;;64.03;29.88;;;4.00;93.10;;;;;;5072851;28;20033;-43
2022/01/12 05:46:12;;;;;;;62.13;29.65;;;3.90;93.10;;;;;;5090736;28;20047;-44
2022/01/12 05:51:25;;;;;;;60.95;30.65;;;4.00;93.10;;;;;;5097382;28;20125;-44
2022/01/12 05:53:52;;;;;;;56.67;29.38;;;3.90;93.00;;;;;;5112774;28;20106;-44
2022/01/12 05:56:20;;;;;;;50.85;28.60;;;3.90;93.00;;;;;;5115887;28;20506;-44
2022/01/12 05:58:47;;;;;;;82.38;29.65;;;3.90;93.00;;;;;;5101979;28;20035;-45
2022/01/12 06:01:14;;;;;;;48.95;28.08;;;3.90;93.00;;;;;;5098016;28;20060;-44
2022/01/12 06:03:41;;;;;;;52.45;28.17;;;3.90;92.90;;;;;;5096690;28;20028;-43
2022/01/12 06:06:08;;;;;;;58.55;29.17;;;3.90;93.00;;;;;;5097881;28;20040;-44
2022/01/12 06:08:34;;;;;;;58.38;27.40;;;3.90;92.90;;;;;;5096564;28;20032;-44
2022/01/12 06:11:02;;;;;;;47.30;26.20;;;3.90;93.00;;;;;;5097302;28;20054;-45
2022/01/12 06:13:29;;;;;;;60.65;27.45;;;3.80;92.90;;;;;;5096556;28;20040;-45
2022/01/12 06:15:58;;;;;;;51.78;26.30;;;3.80;92.90;;;;;;5068210;28;20043;-46
2022/01/12 06:18:28;;;;;;;44.88;25.42;;;3.80;93.00;;;;;;5109070;28;20342;-47
2022/01/12 06:20:54;;;;;;;44.45;24.17;;;3.80;93.00;;;;;;5115898;28;20111;-46
2022/01/12 06:23:21;;;;;;;138.35;29.75;;;3.80;92.90;;;;;;5086711;28;20429;-44
2022/01/12 06:25:48;;;;;;;58.28;24.83;;;3.80;92.90;;;;;;5108337;28;20046;-44
2022/01/12 06:28:34;;;;;;;50.13;24.77;;;3.80;93.00;;;;;;5097380;28;20117;-44
2022/01/12 06:31:13;;;;;;;51.00;23.77;;;3.80;93.00;;;;;;5101830;28;20131;-44
2022/01/12 06:33:45;;;;;;;46.03;23.75;;;3.70;92.90;;;;;;5109174;28;20249;-44
2022/01/12 06:36:16;;;;;;;36.00;21.20;;;3.80;93.00;;;;;;5114844;28;20127;-44
2022/01/12 06:38:44;;;;;;;37.08;21.42;;;3.80;93.00;;;;;;5111188;28;20047;-44
2022/01/12 06:41:14;;;;;;;37.78;20.10;;;3.80;93.00;;;;;;5079218;28;20035;-45
2022/01/12 06:43:42;;;;;;;35.83;22.52;;;3.80;93.00;;;;;;5104684;28;20402;-44
2022/01/12 06:46:08;;;;;;;36.15;20.30;;;3.80;93.00;;;;;;5110825;28;20099;-44
2022/01/12 06:48:35;;;;;;;34.05;20.27;;;3.80;92.90;;;;;;5107888;28;20031;-44
2022/01/12 06:51:03;;;;;;;37.03;20.65;;;3.80;92.90;;;;;;5094317;28;20028;-45
2022/01/12 06:53:32;;;;;;;32.38;20.70;;;3.70;92.80;;;;;;5095693;28;20024;-45
2022/01/12 06:55:59;;;;;;;34.50;20.23;;;3.70;92.80;;;;;;5109914;28;20047;-46
2022/01/12 06:58:28;;;;;;;30.98;19.05;;;3.70;92.80;;;;;;5115870;28;20055;-45
2022/01/12 07:00:59;;;;;;;30.13;18.75;;;3.70;92.80;;;;;;5102280;28;20067;-47
2022/01/12 07:03:26;;;;;;;36.05;18.65;;;3.60;92.80;;;;;;5095389;28;20040;-44
2022/01/12 07:05:53;;;;;;;34.10;18.98;;;3.60;92.80;;;;;;5105355;28;20035;-44
2022/01/12 07:08:20;;;;;;;34.97;20.50;;;3.60;92.80;;;;;;5115716;28;20110;-45
2022/01/12 07:10:47;;;;;;;31.63;18.92;;;3.60;92.70;;;;;;5097258;28;20338;-45
2022/01/12 07:13:14;;;;;;;43.15;19.05;;;3.60;92.70;;;;;;5095422;28;20108;-45
2022/01/12 07:15:43;;;;;;;36.05;19.92;;;3.60;92.70;;;;;;5112751;28;20093;-44
2022/01/12 07:18:11;;;;;;;27.92;17.35;;;3.50;92.60;;;;;;5112351;28;20028;-45
2022/01/12 07:20:37;;;;;;;28.75;17.40;;;3.50;92.60;;;;;;5111015;28;20046;-46
2022/01/12 07:23:05;;;;;;;33.03;17.67;;;3.50;92.50;;;;;;5077574;28;20413;-46
2022/01/12 07:25:32;;;;;;;31.90;17.75;;;3.40;92.50;;;;;;5096025;28;20099;-47
2022/01/12 07:27:59;;;;;;;26.45;16.90;;;3.40;92.50;;;;;;5077262;28;20499;-44
2022/01/12 07:30:27;;;;;;;30.02;18.20;;;3.40;92.40;;;;;;5096385;28;20070;-45
2022/01/12 07:32:55;;;;;;;34.05;18.00;;;3.40;92.50;;;;;;5100364;28;20032;-44
2022/01/12 07:35:22;;;;;;;39.25;19.20;;;3.40;92.50;;;;;;5112113;28;20020;-45
2022/01/12 07:37:49;;;;;;;36.83;17.88;;;3.40;92.50;;;;;;5093747;28;20032;-44
2022/01/12 07:40:16;;;;;;;44.20;17.55;;;3.30;92.50;;;;;;5095110;28;20100;-45
2022/01/12 07:42:44;;;;;;;143.55;19.95;;;3.30;92.40;;;;;;5097637;28;20059;-44
2022/01/12 07:45:12;;;;;;;38.53;14.20;;;3.30;92.40;;;;;;5107775;28;20023;-45
2022/01/12 07:47:37;;;;;;;67.00;15.73;;;3.30;92.30;;;;;;5099435;28;20047;-46
2022/01/12 07:50:05;;;;;;;59.60;13.35;;;3.20;92.30;;;;;;5100304;28;20036;-44
2022/01/12 07:52:32;;;;;;;36.47;11.90;;;3.20;92.10;;;;;;5094834;28;20325;-47
2022/01/12 07:54:59;;;;;;;15.27;10.50;;;3.00;91.90;;;;;;5096400;28;20442;-45
2022/01/12 07:57:29;;;;;;;18.25;10.73;;;2.90;92.00;;;;;;5098388;28;20032;-45
2022/01/12 07:59:56;;;;;;;;;;;2.90;92.00;;;;;;5096534;28;20036;-47
2022/01/12 08:02:23;;;;;;;46.95;12.60;;;2.80;91.90;;;;;;5094937;28;20302;-45
2022/01/12 08:04:51;;;;;;;18.15;12.48;;;2.70;91.90;;;;;;5100653;28;20061;-46
2022/01/12 08:07:17;;;;;;;28.05;12.05;;;2.70;91.90;;;;;;5114155;28;20020;-45
2022/01/12 08:09:44;;;;;;;33.38;13.90;;;2.70;91.90;;;;;;5112035;28;20024;-46
2022/01/12 08:12:11;;;;;;;27.60;12.93;;;2.70;91.90;;;;;;5114316;28;20031;-45
2022/01/12 08:14:38;;;;;;;58.92;14.85;;;2.60;91.90;;;;;;5094679;28;20111;-45
2022/01/12 08:17:05;;;;;;;67.55;12.95;;;2.60;91.90;;;;;;5112759;28;20034;-45
2022/01/12 08:19:35;;;;;;;25.17;12.38;;;2.70;92.00;;;;;;5110654;28;20899;-46
2022/01/12 08:22:03;;;;;;;30.60;13.75;;;2.70;92.00;;;;;;5095527;28;20042;-46
2022/01/12 08:24:30;;;;;;;25.40;12.90;;;2.70;92.10;;;;;;5112650;28;20530;-46
2022/01/12 08:26:57;;;;;;;23.45;12.20;;;2.70;92.10;;;;;;5114351;28;20088;-45
2022/01/12 08:29:26;;;;;;;16.13;11.77;;;2.80;92.10;;;;;;5112655;28;20027;-46
2022/01/12 08:31:52;;;;;;;24.33;10.95;;;2.80;92.10;;;;;;5113234;28;20028;-46
2022/01/12 08:34:19;;;;;;;20.33;11.27;;;2.80;92.10;;;;;;5113818;28;20092;-47
2022/01/12 08:36:45;;;;;;;15.73;10.55;;;2.80;92.10;;;;;;5093944;28;20059;-45
2022/01/12 08:39:12;;;;;;;21.73;11.23;;;2.80;92.20;;;;;;5105274;28;20038;-46
2022/01/12 08:41:39;;;;;;;20.10;10.32;;;2.90;92.20;;;;;;5109562;28;20047;-45
2022/01/12 08:44:06;;;;;;;16.17;10.15;;;2.90;92.00;;;;;;5096231;28;20322;-45
2022/01/12 08:46:34;;;;;;;13.50;8.80;;;2.90;92.10;;;;;;5113882;28;20062;-47
2022/01/12 08:49:00;;;;;;;12.93;9.20;;;3.00;92.20;;;;;;5090440;28;20368;-45
2022/01/12 08:51:26;;;;;;;28.13;10.13;;;3.00;92.20;;;;;;5110750;28;20036;-45
2022/01/12 08:53:53;;;;;;;29.63;10.77;;;3.10;92.20;;;;;;5112398;28;20027;-47
2022/01/12 08:56:20;;;;;;;23.05;9.13;;;3.10;92.20;;;;;;5112376;28;20589;-46
2022/01/12 08:58:48;;;;;;;11.75;8.77;;;3.20;92.20;;;;;;5094470;28;20126;-45
2022/01/12 09:01:16;;;;;;;42.33;11.02;;;3.20;92.00;;;;;;5114064;28;20031;-46
2022/01/12 09:03:43;;;;;;;20.67;8.73;;;3.30;92.10;;;;;;5108682;28;20035;-46
2022/01/12 09:06:09;;;;;;;18.92;7.57;;;3.30;91.90;;;;;;5086669;28;20028;-45
2022/01/12 09:08:44;;;;;;;15.80;8.02;;;3.30;91.80;;;;;;5095070;28;20115;-45
2022/01/12 09:11:15;;;;;;;13.23;8.68;;;3.30;91.80;;;;;;5093451;28;20035;-45
2022/01/12 09:13:41;;;;;;;11.07;7.97;;;3.30;91.70;;;;;;5102101;28;20036;-45
2022/01/12 09:16:10;;;;;;;19.13;9.30;;;3.40;91.90;;;;;;5077586;28;20028;-44
2022/01/12 09:18:39;;;;;;;11.40;8.00;;;3.40;91.70;;;;;;5113935;28;20055;-46
2022/01/12 09:21:06;;;;;;;17.77;11.02;;;3.40;91.70;;;;;;5104844;28;20028;-45
2022/01/12 09:23:34;;;;;;;15.80;8.20;;;3.40;91.60;;;;;;5117951;28;20032;-45
2022/01/12 09:26:02;;;;;;;30.92;11.73;;;3.50;91.80;;;;;;5080105;28;20388;-46
2022/01/12 09:28:31;;;;;;;11.00;7.75;;;3.50;91.60;;;;;;5097375;28;20062;-45
2022/01/12 09:30:58;;;;;;;9.88;7.93;;;3.50;91.60;;;;;;5099671;28;20036;-45
2022/01/12 09:33:25;;;;;;;9.55;7.25;;;3.60;91.70;;;;;;5097278;28;20043;-46
2022/01/12 09:35:53;;;;;;;14.73;8.35;;;3.60;91.50;;;;;;5100979;28;20094;-48
2022/01/12 09:38:20;;;;;;;11.95;7.63;;;3.60;91.40;;;;;;5097251;28;20043;-45
2022/01/12 09:40:53;;;;;;;12.90;9.68;;;3.70;91.50;;;;;;5112502;28;20020;-46
2022/01/12 09:43:23;;;;;;;88.13;13.60;;;3.70;91.50;;;;;;5097828;28;20089;-44
2022/01/12 09:45:53;;;;;;;12.80;10.25;;;3.70;91.50;;;;;;5109728;28;20593;-45
2022/01/12 09:48:24;;;;;;;17.90;11.77;;;3.70;91.20;;;;;;5109529;28;20100;-44
2022/01/12 09:50:58;;;;;;;23.40;10.73;;;3.70;91.30;;;;;;5108934;28;20065;-45
2022/01/12 09:53:25;;;;;;;18.23;9.63;;;3.90;91.40;;;;;;5097089;28;20036;-45
2022/01/12 09:55:52;;;;;;;27.05;10.30;;;3.90;91.40;;;;;;5104183;28;20460;-44
2022/01/12 09:58:18;;;;;;;24.00;9.00;;;3.80;91.40;;;;;;5116990;28;20096;-44
2022/01/12 10:01:05;;;;;;;11.88;7.85;;;3.90;91.50;;;;;;5116808;28;20035;-43
2022/01/12 10:03:32;;;;;;;87.80;10.40;;;3.80;91.40;;;;;;5116623;28;20039;-45
2022/01/12 10:06:10;;;;;;;11.93;5.40;;;3.80;91.40;;;;;;5102619;28;20430;-44
2022/01/12 10:08:37;;;;;;;46.90;7.10;;;3.80;91.50;;;;;;5095701;28;20453;-43
2022/01/12 10:11:07;;;;;;;29.20;7.88;;;3.90;91.60;;;;;;5100559;28;20069;-44
2022/01/12 10:13:36;;;;;;;;;;;3.90;91.60;;;;;;5112953;28;20032;-44
2022/01/12 10:16:16;;;;;;;38.87;8.30;;;3.90;91.60;;;;;;5110416;28;20316;-43
2022/01/12 10:18:55;;;;;;;8.18;5.80;;;4.00;91.70;;;;;;5096312;28;20270;-43
2022/01/12 10:21:40;;;;;;;24.52;7.38;;;4.10;91.70;;;;;;5104343;28;20337;-44
2022/01/12 10:24:14;;;;;;;16.90;7.10;;;4.20;91.80;;;;;;5097362;28;20028;-42
2022/01/12 10:26:44;;;;;;;13.25;7.57;;;4.30;91.80;;;;;;5116034;28;20027;-43
2022/01/12 10:29:15;;;;;;;21.67;7.10;;;4.30;91.70;;;;;;5101074;28;20028;-43
2022/01/12 10:32:00;;;;;;;14.40;7.32;;;4.40;91.70;;;;;;5095262;28;20321;-43
2022/01/12 10:34:47;;;;;;;15.25;7.50;;;4.40;91.70;;;;;;5093455;28;20036;-44
2022/01/12 10:37:22;;;;;;;11.25;7.82;;;4.40;91.70;;;;;;5096261;28;20035;-43
2022/01/12 10:39:51;;;;;;;13.75;7.60;;;4.40;91.50;;;;;;5093249;28;20051;-43
2022/01/12 10:42:19;;;;;;;13.80;7.15;;;4.50;91.70;;;;;;5078146;28;20024;-43
2022/01/12 10:44:49;;;;;;;23.35;7.53;;;4.50;91.70;;;;;;5112918;28;20032;-43
2022/01/12 10:47:16;;;;;;;29.10;7.85;;;4.60;91.80;;;;;;5115924;28;20039;-42
2022/01/12 10:50:00;;;;;;;22.48;7.47;;;4.60;91.60;;;;;;5102401;28;20020;-43
2022/01/12 10:52:38;;;;;;;14.77;7.60;;;4.50;91.60;;;;;;5088639;28;20030;-42
2022/01/12 10:55:12;;;;;;;38.05;7.63;;;4.60;91.70;;;;;;5079514;28;20031;-43
2022/01/12 10:57:45;;;;;;;12.95;6.82;;;4.60;91.60;;;;;;5106978;28;20034;-42
2022/01/12 11:00:30;;;;;;;14.65;7.07;;;4.70;91.60;;;;;;5097056;28;20031;-42
2022/01/12 11:03:02;;;;;;;12.18;7.43;;;4.70;91.50;;;;;;5095706;28;20024;-42
2022/01/12 11:05:30;;;;;;;23.02;8.02;;;4.70;91.70;;;;;;5106139;28;20110;-42
2022/01/12 11:07:56;;;;;;;22.52;7.95;;;4.80;91.70;;;;;;5098150;28;20031;-43
2022/01/12 11:10:25;;;;;;;13.15;6.75;;;4.80;91.60;;;;;;5099382;28;20036;-42
2022/01/12 11:12:52;;;;;;;14.25;6.00;;;4.80;91.70;;;;;;5096512;28;20093;-42
2022/01/12 11:15:21;;;;;;;18.63;7.20;;;4.90;91.70;;;;;;5104472;28;20059;-42
2022/01/12 11:17:50;;;;;;;30.70;7.38;;;4.90;91.70;;;;;;5115292;28;20118;-42
2022/01/12 11:20:28;;;;;;;34.88;7.85;;;4.90;91.60;;;;;;5107215;28;20131;-42
2022/01/12 11:23:13;;;;;;;12.40;6.75;;;4.90;91.60;;;;;;5106561;28;20032;-42
2022/01/12 11:25:41;;;;;;;20.55;7.90;;;4.90;91.60;;;;;;5106329;28;20372;-43
2022/01/12 11:28:27;;;;;;;13.40;7.47;;;4.90;91.80;;;;;;5109951;28;20024;-42
2022/01/12 11:30:56;;;;;;;11.48;7.10;;;5.00;91.80;;;;;;5104626;28;20024;-43
2022/01/12 11:33:40;;;;;;;19.02;8.43;;;5.00;91.90;;;;;;5108781;28;20452;-42
2022/01/12 11:36:34;;;;;;;16.00;8.07;;;5.10;91.80;;;;;;5081986;28;20340;-42
2022/01/12 11:39:06;;;;;;;19.75;8.43;;;5.10;91.90;;;;;;5100135;28;20051;-42
2022/01/12 11:41:42;;;;;;;14.15;7.07;;;5.20;92.10;;;;;;5115282;28;20030;-42
2022/01/12 11:44:28;;;;;;;19.63;7.53;;;5.20;92.00;;;;;;5111660;28;20344;-43
2022/01/12 11:46:54;;;;;;;22.45;7.68;;;5.30;92.00;;;;;;5094670;28;20119;-42
2022/01/12 11:49:44;;;;;;;12.75;7.88;;;5.30;92.00;;;;;;5096151;28;20111;-42
2022/01/12 11:52:25;;;;;;;11.60;6.95;;;5.30;91.90;;;;;;5102298;28;20028;-42
2022/01/12 11:55:01;;;;;;;12.23;6.45;;;5.40;91.90;;;;;;5096174;28;20039;-42
2022/01/12 11:57:34;;;;;;;12.15;6.75;;;5.30;91.70;;;;;;5094640;28;20024;-42
2022/01/12 12:00:12;;;;;;;10.60;5.97;;;5.30;91.90;;;;;;5106951;28;20102;-43
2022/01/12 12:02:57;;;;;;;14.40;7.43;;;5.40;92.00;;;;;;5085415;28;20055;-43
2022/01/12 12:05:30;;;;;;;14.77;7.05;;;5.50;92.00;;;;;;5098603;28;20074;-43
2022/01/12 12:08:04;;;;;;;16.80;7.82;;;5.40;91.80;;;;;;5095481;28;20102;-44
2022/01/12 12:10:34;;;;;;;18.52;7.38;;;5.40;91.80;;;;;;5104607;28;20085;-43
2022/01/12 12:13:02;;;;;;;12.02;7.40;;;5.40;91.80;;;;;;5108279;28;20038;-42
2022/01/12 12:15:29;;;;;;;17.27;8.30;;;5.40;91.80;;;;;;5104648;28;20028;-43
2022/01/12 12:18:04;;;;;;;13.15;8.35;;;5.40;91.90;;;;;;5095047;28;20040;-42
2022/01/12 12:20:32;;;;;;;19.60;8.25;;;5.40;91.90;;;;;;5106001;28;20024;-43
2022/01/12 12:22:59;;;;;;;15.60;9.18;;;5.40;91.90;;;;;;5081766;28;20032;-43
2022/01/12 12:25:29;;;;;;;18.45;10.45;;;5.40;91.80;;;;;;5095313;28;20024;-42
2022/01/12 12:28:03;;;;;;;22.00;9.15;;;5.40;91.90;;;;;;5076319;28;20020;-42
2022/01/12 12:30:34;;;;;;;22.98;9.90;;;5.30;91.80;;;;;;5105171;28;20467;-44
2022/01/12 12:33:19;;;;;;;15.43;9.90;;;5.30;91.80;;;;;;5094712;28;20075;-42
2022/01/12 12:35:46;;;;;;;16.85;9.70;;;5.30;91.90;;;;;;5103075;28;20438;-42
2022/01/12 12:38:15;;;;;;;19.27;10.63;;;5.30;91.90;;;;;;5093906;28;20035;-43
2022/01/12 12:40:45;;;;;;;19.30;9.40;;;5.40;92.10;;;;;;5087742;28;20504;-42
2022/01/12 12:43:25;;;;;;;18.63;10.13;;;5.40;91.90;;;;;;5114093;28;20038;-43
2022/01/12 12:46:05;;;;;;;17.20;8.55;;;5.40;91.90;;;;;;5087732;28;20062;-42
2022/01/12 12:48:39;;;;;;;17.08;9.50;;;5.40;92.00;;;;;;5094654;28;20382;-42
2022/01/12 12:51:24;;;;;;;19.13;8.80;;;5.40;91.90;;;;;;5113081;28;20023;-43
2022/01/12 12:53:57;;;;;;;17.50;10.82;;;5.40;92.00;;;;;;5114012;28;20079;-42
2022/01/12 12:56:27;;;;;;;20.80;10.48;;;5.40;92.00;;;;;;5103080;28;20031;-43
2022/01/12 12:58:57;;;;;;;22.95;11.13;;;5.40;92.00;;;;;;5075905;28;20048;-42
2022/01/12 13:01:25;;;;;;;20.60;11.27;;;5.40;92.00;;;;;;5111296;28;20047;-43
2022/01/12 13:03:54;;;;;;;26.23;12.10;;;5.40;92.00;;;;;;5114017;28;20078;-42
2022/01/12 13:06:49;;;;;;;16.85;10.50;;;5.40;92.00;;;;;;5075438;28;20033;-43
2022/01/12 13:09:18;;;;;;;16.73;11.18;;;5.40;92.20;;;;;;5094859;28;20048;-44
2022/01/12 13:11:46;;;;;;;25.08;11.02;;;5.50;92.20;;;;;;5093504;28;20767;-42
2022/01/12 13:14:15;;;;;;;18.05;9.85;;;5.50;92.00;;;;;;5112464;28;20031;-43
2022/01/12 13:16:51;;;;;;;18.00;9.82;;;5.40;91.90;;;;;;5086310;28;20028;-43
2022/01/12 13:22:36;;;;;;;17.52;9.68;;;5.40;92.00;;;;;;5101669;28;20417;-42
2022/01/12 13:25:07;;;;;;;19.23;11.43;;;5.30;92.10;;;;;;5094591;28;20059;-43
2022/01/12 13:27:35;;;;;;;25.63;11.80;;;5.40;92.10;;;;;;5075724;28;20070;-42
2022/01/12 13:30:04;;;;;;;16.33;12.02;;;5.40;92.10;;;;;;5099095;28;20024;-44
2022/01/12 13:32:31;;;;;;;22.13;11.90;;;5.40;92.20;;;;;;5113819;28;20460;-43
2022/01/12 13:35:11;;;;;;;22.75;11.88;;;5.40;92.20;;;;;;5109485;28;20048;-43
2022/01/12 13:37:39;;;;;;;19.17;11.75;;;5.40;92.10;;;;;;5093692;28;20027;-42
2022/01/12 13:40:14;;;;;;;20.08;11.88;;;5.40;92.20;;;;;;5099690;28;20039;-45
2022/01/12 13:42:56;;;;;;;24.60;11.73;;;5.30;92.10;;;;;;5111707;28;20028;-43
2022/01/12 13:45:24;;;;;;;17.13;11.32;;;5.20;92.10;;;;;;5105362;28;20405;-43
2022/01/12 13:47:57;;;;;;;22.63;12.90;;;5.20;92.20;;;;;;5092970;28;20060;-42
2022/01/12 13:50:36;;;;;;;26.65;12.68;;;5.20;92.30;;;;;;5102232;28;20089;-44
2022/01/12 13:53:04;;;;;;;26.88;13.00;;;5.30;92.40;;;;;;5099743;28;20028;-43
2022/01/12 13:55:30;;;;;;;23.83;11.77;;;5.30;92.40;;;;;;5109851;28;20123;-42
2022/01/12 13:58:05;;;;;;;28.45;13.13;;;5.20;92.30;;;;;;5104679;28;20032;-43
2022/01/12 14:00:37;;;;;;;25.73;12.88;;;5.20;92.40;;;;;;5101828;28;20034;-44
2022/01/12 14:03:25;;;;;;;26.65;12.93;;;5.20;92.40;;;;;;5109573;28;20122;-43
2022/01/12 14:05:59;;;;;;;23.67;13.55;;;5.10;92.40;;;;;;5099829;28;20438;-43
2022/01/12 14:08:40;;;;;;;27.35;14.07;;;5.10;92.50;;;;;;5096347;28;20028;-44
2022/01/12 14:11:07;;;;;;;28.70;14.77;;;5.10;92.50;;;;;;5108109;28;20050;-43
2022/01/12 14:13:40;;;;;;;26.08;14.77;;;5.10;92.60;;;;;;5080062;28;20063;-42
2022/01/12 14:16:12;;;;;;;28.17;13.55;;;5.10;92.60;;;;;;5098983;28;20035;-43
2022/01/12 14:18:42;;;;;;;27.02;14.27;;;5.10;92.70;;;;;;5116045;28;20034;-43